sensor_id;sensor_type;location;lat;lon;timestamp;temperature;humidity
13354;DHT22;6746;50.892;4.064;2022-12-18T00:01:58;-4.60;99.90
13354;DHT22;6746;50.892;4.064;2022-12-18T00:04:37;-4.60;99.90
13354;DHT22;6746;50.892;4.064;2022-12-18T00:07:25;-4.50;99.90
13354;DHT22;6746;50.892;4.064;2022-12-18T00:10:03;-4.50;99.90
13354;DHT22;6746;50.892;4.064;2022-12-18T00:12:41;-4.50;99.90
13354;DHT22;6746;50.892;4.064;2022-12-18T00:15:19;-4.60;99.90
13354;DHT22;6746;50.892;4.064;2022-12-18T00:17:58;-4.60;99.90
13354;DHT22;6746;50.892;4.064;2022-12-18T00:20:39;-4.60;99.90
13354;DHT22;6746;50.892;4.064;2022-12-18T00:23:17;-4.60;99.90
13354;DHT22;6746;50.892;4.064;2022-12-18T00:26:00;-4.70;99.90
13354;DHT22;6746;50.892;4.064;2022-12-18T00:28:38;-4.70;99.90
13354;DHT22;6746;50.892;4.064;2022-12-18T00:31:20;-4.60;99.90
13354;DHT22;6746;50.892;4.064;2022-12-18T00:33:57;-4.70;99.90
13354;DHT22;6746;50.892;4.064;2022-12-18T00:36:46;-4.70;99.90
13354;DHT22;6746;50.892;4.064;2022-12-18T00:39:23;-4.70;99.90
13354;DHT22;6746;50.892;4.064;2022-12-18T00:42:01;-4.70;99.90
13354;DHT22;6746;50.892;4.064;2022-12-18T00:44:57;-4.80;99.90
13354;DHT22;6746;50.892;4.064;2022-12-18T00:47:36;-4.80;99.90
13354;DHT22;6746;50.892;4.064;2022-12-18T00:50:24;-4.80;99.90
13354;DHT22;6746;50.892;4.064;2022-12-18T00:53:02;-4.80;99.90
13354;DHT22;6746;50.892;4.064;2022-12-18T00:55:40;-4.80;99.90
13354;DHT22;6746;50.892;4.064;2022-12-18T00:58:28;-4.80;99.90
13354;DHT22;6746;50.892;4.064;2022-12-18T01:01:06;-4.90;99.90
13354;DHT22;6746;50.892;4.064;2022-12-18T01:03:44;-4.90;99.90
13354;DHT22;6746;50.892;4.064;2022-12-18T01:06:22;-4.90;99.90
13354;DHT22;6746;50.892;4.064;2022-12-18T01:09:01;-4.90;99.90
13354;DHT22;6746;50.892;4.064;2022-12-18T01:11:41;-4.90;99.90
13354;DHT22;6746;50.892;4.064;2022-12-18T01:14:20;-4.90;99.90
13354;DHT22;6746;50.892;4.064;2022-12-18T01:17:03;-4.90;99.90
13354;DHT22;6746;50.892;4.064;2022-12-18T01:19:41;-4.90;99.90
13354;DHT22;6746;50.892;4.064;2022-12-18T01:22:29;-4.90;99.90
13354;DHT22;6746;50.892;4.064;2022-12-18T01:25:07;-4.90;99.90
13354;DHT22;6746;50.892;4.064;2022-12-18T01:27:45;-4.90;99.90
13354;DHT22;6746;50.892;4.064;2022-12-18T01:30:32;-4.90;99.90
13354;DHT22;6746;50.892;4.064;2022-12-18T01:33:20;-4.90;99.90
13354;DHT22;6746;50.892;4.064;2022-12-18T01:36:13;-5.00;99.90
13354;DHT22;6746;50.892;4.064;2022-12-18T01:38:58;-5.00;99.90
13354;DHT22;6746;50.892;4.064;2022-12-18T01:41:45;-5.10;99.90
13354;DHT22;6746;50.892;4.064;2022-12-18T01:44:55;-5.10;99.90
13354;DHT22;6746;50.892;4.064;2022-12-18T01:47:46;-5.20;99.90
13354;DHT22;6746;50.892;4.064;2022-12-18T01:50:40;-5.20;99.90
13354;DHT22;6746;50.892;4.064;2022-12-18T01:53:24;-5.20;99.90
13354;DHT22;6746;50.892;4.064;2022-12-18T01:56:16;-5.20;99.90
13354;DHT22;6746;50.892;4.064;2022-12-18T01:59:04;-5.20;99.90
13354;DHT22;6746;50.892;4.064;2022-12-18T02:01:52;-5.20;99.90
13354;DHT22;6746;50.892;4.064;2022-12-18T02:04:41;-5.10;99.90
13354;DHT22;6746;50.892;4.064;2022-12-18T02:07:36;-5.00;99.90
13354;DHT22;6746;50.892;4.064;2022-12-18T02:10:31;-4.90;99.90
13354;DHT22;6746;50.892;4.064;2022-12-18T02:13:36;-4.90;99.90
13354;DHT22;6746;50.892;4.064;2022-12-18T02:16:39;-4.80;99.90
13354;DHT22;6746;50.892;4.064;2022-12-18T02:19:44;-4.80;99.90
13354;DHT22;6746;50.892;4.064;2022-12-18T02:26:02;-5.10;99.90
13354;DHT22;6746;50.892;4.064;2022-12-18T02:29:10;-5.30;99.90
13354;DHT22;6746;50.892;4.064;2022-12-18T02:31:58;-5.30;99.90
13354;DHT22;6746;50.892;4.064;2022-12-18T02:34:46;-5.40;99.90
13354;DHT22;6746;50.892;4.064;2022-12-18T02:37:34;-5.40;99.90
13354;DHT22;6746;50.892;4.064;2022-12-18T02:40:23;-5.50;99.90
13354;DHT22;6746;50.892;4.064;2022-12-18T02:43:13;-5.60;99.90
13354;DHT22;6746;50.892;4.064;2022-12-18T02:46:00;-5.60;99.90
13354;DHT22;6746;50.892;4.064;2022-12-18T02:48:47;-5.60;99.90
13354;DHT22;6746;50.892;4.064;2022-12-18T02:57:24;-5.60;99.90
13354;DHT22;6746;50.892;4.064;2022-12-18T03:00:06;-5.70;99.90
13354;DHT22;6746;50.892;4.064;2022-12-18T03:03:09;-5.70;99.90
13354;DHT22;6746;50.892;4.064;2022-12-18T03:05:58;-5.80;99.90
13354;DHT22;6746;50.892;4.064;2022-12-18T03:08:48;-5.70;99.90
13354;DHT22;6746;50.892;4.064;2022-12-18T03:11:37;-5.70;99.90
13354;DHT22;6746;50.892;4.064;2022-12-18T03:14:42;-5.70;99.90
13354;DHT22;6746;50.892;4.064;2022-12-18T03:17:31;-5.70;99.90
13354;DHT22;6746;50.892;4.064;2022-12-18T03:20:20;-5.70;99.90
13354;DHT22;6746;50.892;4.064;2022-12-18T03:23:12;-5.70;99.90
13354;DHT22;6746;50.892;4.064;2022-12-18T03:25:46;-5.70;99.90
13354;DHT22;6746;50.892;4.064;2022-12-18T03:28:25;-5.70;99.90
13354;DHT22;6746;50.892;4.064;2022-12-18T03:31:03;-5.80;99.90
13354;DHT22;6746;50.892;4.064;2022-12-18T03:33:42;-5.80;99.90
13354;DHT22;6746;50.892;4.064;2022-12-18T03:36:19;-5.90;99.90
13354;DHT22;6746;50.892;4.064;2022-12-18T03:38:57;-5.90;99.90
13354;DHT22;6746;50.892;4.064;2022-12-18T03:41:46;-6.00;99.90
13354;DHT22;6746;50.892;4.064;2022-12-18T03:44:45;-6.00;99.90
13354;DHT22;6746;50.892;4.064;2022-12-18T03:47:21;-6.00;99.90
13354;DHT22;6746;50.892;4.064;2022-12-18T03:50:29;-6.00;99.90
13354;DHT22;6746;50.892;4.064;2022-12-18T03:53:36;-6.10;99.90
13354;DHT22;6746;50.892;4.064;2022-12-18T03:56:28;-6.10;99.90
13354;DHT22;6746;50.892;4.064;2022-12-18T03:59:07;-6.10;99.90
13354;DHT22;6746;50.892;4.064;2022-12-18T04:01:46;-6.20;99.90
13354;DHT22;6746;50.892;4.064;2022-12-18T04:04:32;-6.20;99.90
13354;DHT22;6746;50.892;4.064;2022-12-18T04:07:10;-6.20;99.90
13354;DHT22;6746;50.892;4.064;2022-12-18T04:09:48;-6.20;99.90
13354;DHT22;6746;50.892;4.064;2022-12-18T04:12:26;-6.30;99.90
13354;DHT22;6746;50.892;4.064;2022-12-18T04:15:07;-6.30;99.90
13354;DHT22;6746;50.892;4.064;2022-12-18T04:17:48;-6.30;99.90
13354;DHT22;6746;50.892;4.064;2022-12-18T04:20:26;-6.30;99.90
13354;DHT22;6746;50.892;4.064;2022-12-18T04:23:04;-6.40;99.90
13354;DHT22;6746;50.892;4.064;2022-12-18T04:25:45;-6.40;99.90
13354;DHT22;6746;50.892;4.064;2022-12-18T04:28:23;-6.50;99.90
13354;DHT22;6746;50.892;4.064;2022-12-18T04:31:11;-6.50;99.90
13354;DHT22;6746;50.892;4.064;2022-12-18T04:33:49;-6.60;99.90
13354;DHT22;6746;50.892;4.064;2022-12-18T04:36:27;-6.60;99.90
13354;DHT22;6746;50.892;4.064;2022-12-18T04:39:05;-6.50;99.90
13354;DHT22;6746;50.892;4.064;2022-12-18T04:41:44;-6.60;99.90
13354;DHT22;6746;50.892;4.064;2022-12-18T04:44:31;-6.60;99.90
13354;DHT22;6746;50.892;4.064;2022-12-18T04:47:19;-6.60;99.90
13354;DHT22;6746;50.892;4.064;2022-12-18T04:50:08;-6.60;99.90
13354;DHT22;6746;50.892;4.064;2022-12-18T04:52:56;-6.60;99.90
13354;DHT22;6746;50.892;4.064;2022-12-18T04:55:44;-6.60;99.90
13354;DHT22;6746;50.892;4.064;2022-12-18T04:58:32;-6.70;99.90
13354;DHT22;6746;50.892;4.064;2022-12-18T05:01:21;-6.70;99.90
13354;DHT22;6746;50.892;4.064;2022-12-18T05:04:09;-6.80;99.90
13354;DHT22;6746;50.892;4.064;2022-12-18T05:06:57;-6.80;99.90
13354;DHT22;6746;50.892;4.064;2022-12-18T05:09:45;-6.80;99.90
13354;DHT22;6746;50.892;4.064;2022-12-18T05:12:30;-6.80;99.90
13354;DHT22;6746;50.892;4.064;2022-12-18T05:15:08;-6.80;99.90
13354;DHT22;6746;50.892;4.064;2022-12-18T05:17:56;-6.80;99.90
13354;DHT22;6746;50.892;4.064;2022-12-18T05:20:43;-6.70;99.90
13354;DHT22;6746;50.892;4.064;2022-12-18T05:23:27;-6.60;99.90
13354;DHT22;6746;50.892;4.064;2022-12-18T05:26:06;-6.60;99.90
13354;DHT22;6746;50.892;4.064;2022-12-18T05:28:47;-6.60;99.90
13354;DHT22;6746;50.892;4.064;2022-12-18T05:31:25;-6.50;99.90
13354;DHT22;6746;50.892;4.064;2022-12-18T05:34:06;-6.40;99.90
13354;DHT22;6746;50.892;4.064;2022-12-18T05:36:43;-6.40;99.90
13354;DHT22;6746;50.892;4.064;2022-12-18T05:39:27;-6.40;99.90
13354;DHT22;6746;50.892;4.064;2022-12-18T05:42:05;-6.50;99.90
13354;DHT22;6746;50.892;4.064;2022-12-18T05:44:53;-6.50;99.90
13354;DHT22;6746;50.892;4.064;2022-12-18T05:47:41;-6.50;99.90
13354;DHT22;6746;50.892;4.064;2022-12-18T05:50:30;-6.50;99.90
13354;DHT22;6746;50.892;4.064;2022-12-18T05:53:17;-6.40;99.90
13354;DHT22;6746;50.892;4.064;2022-12-18T05:55:59;-6.40;99.90
13354;DHT22;6746;50.892;4.064;2022-12-18T05:58:43;-6.40;99.90
13354;DHT22;6746;50.892;4.064;2022-12-18T06:01:23;-6.30;99.90
13354;DHT22;6746;50.892;4.064;2022-12-18T06:03:59;-6.30;99.90
13354;DHT22;6746;50.892;4.064;2022-12-18T06:06:38;-6.30;99.90
13354;DHT22;6746;50.892;4.064;2022-12-18T06:09:16;-6.20;99.90
13354;DHT22;6746;50.892;4.064;2022-12-18T06:11:57;-6.20;99.90
13354;DHT22;6746;50.892;4.064;2022-12-18T06:14:35;-6.20;99.90
13354;DHT22;6746;50.892;4.064;2022-12-18T06:17:16;-6.10;99.90
13354;DHT22;6746;50.892;4.064;2022-12-18T06:19:54;-6.10;99.90
13354;DHT22;6746;50.892;4.064;2022-12-18T06:22:32;-6.10;99.90
13354;DHT22;6746;50.892;4.064;2022-12-18T06:25:11;-6.00;99.90
13354;DHT22;6746;50.892;4.064;2022-12-18T06:27:49;-6.10;99.90
13354;DHT22;6746;50.892;4.064;2022-12-18T06:30:27;-6.10;99.90
13354;DHT22;6746;50.892;4.064;2022-12-18T06:33:08;-6.10;99.90
13354;DHT22;6746;50.892;4.064;2022-12-18T06:35:46;-6.00;99.90
13354;DHT22;6746;50.892;4.064;2022-12-18T06:38:24;-6.10;99.90
13354;DHT22;6746;50.892;4.064;2022-12-18T06:41:09;-6.10;99.90
13354;DHT22;6746;50.892;4.064;2022-12-18T06:43:52;-6.10;99.90
13354;DHT22;6746;50.892;4.064;2022-12-18T06:46:30;-6.10;99.90
13354;DHT22;6746;50.892;4.064;2022-12-18T06:49:18;-6.10;99.90
13354;DHT22;6746;50.892;4.064;2022-12-18T06:51:59;-6.00;99.90
13354;DHT22;6746;50.892;4.064;2022-12-18T06:54:37;-6.00;99.90
13354;DHT22;6746;50.892;4.064;2022-12-18T06:57:16;-6.10;99.90
13354;DHT22;6746;50.892;4.064;2022-12-18T06:59:54;-6.00;99.90
13354;DHT22;6746;50.892;4.064;2022-12-18T07:02:35;-6.00;99.90
13354;DHT22;6746;50.892;4.064;2022-12-18T07:05:13;-6.00;99.90
13354;DHT22;6746;50.892;4.064;2022-12-18T07:08:01;-6.00;99.90
13354;DHT22;6746;50.892;4.064;2022-12-18T07:10:49;-6.00;99.90
13354;DHT22;6746;50.892;4.064;2022-12-18T07:13:32;-6.00;99.90
13354;DHT22;6746;50.892;4.064;2022-12-18T07:16:12;-6.00;99.90
13354;DHT22;6746;50.892;4.064;2022-12-18T07:18:59;-6.00;99.90
13354;DHT22;6746;50.892;4.064;2022-12-18T07:21:40;-6.00;99.90
13354;DHT22;6746;50.892;4.064;2022-12-18T07:24:18;-6.00;99.90
13354;DHT22;6746;50.892;4.064;2022-12-18T07:26:57;-5.90;99.90
13354;DHT22;6746;50.892;4.064;2022-12-18T07:29:26;-5.90;99.90
13354;DHT22;6746;50.892;4.064;2022-12-18T07:31:55;-5.90;99.90
13354;DHT22;6746;50.892;4.064;2022-12-18T07:34:28;-6.00;99.90
13354;DHT22;6746;50.892;4.064;2022-12-18T07:36:57;-6.00;99.90
13354;DHT22;6746;50.892;4.064;2022-12-18T07:39:36;-6.00;99.90
13354;DHT22;6746;50.892;4.064;2022-12-18T07:42:07;-6.00;99.90
13354;DHT22;6746;50.892;4.064;2022-12-18T07:44:54;-6.00;99.90
13354;DHT22;6746;50.892;4.064;2022-12-18T07:47:35;-6.00;99.90
13354;DHT22;6746;50.892;4.064;2022-12-18T07:50:16;-6.00;99.90
13354;DHT22;6746;50.892;4.064;2022-12-18T07:52:45;-5.90;99.90
13354;DHT22;6746;50.892;4.064;2022-12-18T07:55:16;-5.90;99.90
13354;DHT22;6746;50.892;4.064;2022-12-18T07:57:48;-5.80;99.90
13354;DHT22;6746;50.892;4.064;2022-12-18T08:00:17;-5.70;99.90
13354;DHT22;6746;50.892;4.064;2022-12-18T08:02:56;-5.70;99.90
13354;DHT22;6746;50.892;4.064;2022-12-18T08:05:34;-5.70;99.90
13354;DHT22;6746;50.892;4.064;2022-12-18T08:08:07;-5.70;99.90
13354;DHT22;6746;50.892;4.064;2022-12-18T08:10:38;-5.70;99.90
13354;DHT22;6746;50.892;4.064;2022-12-18T08:13:14;-5.70;99.90
13354;DHT22;6746;50.892;4.064;2022-12-18T08:15:43;-5.50;99.90
13354;DHT22;6746;50.892;4.064;2022-12-18T08:18:21;-5.50;99.90
13354;DHT22;6746;50.892;4.064;2022-12-18T08:20:53;-5.40;99.90
13354;DHT22;6746;50.892;4.064;2022-12-18T08:23:21;-5.30;99.90
13354;DHT22;6746;50.892;4.064;2022-12-18T08:26:00;-5.20;99.90
13354;DHT22;6746;50.892;4.064;2022-12-18T08:28:31;-5.10;99.90
13354;DHT22;6746;50.892;4.064;2022-12-18T08:31:00;-5.00;99.90
13354;DHT22;6746;50.892;4.064;2022-12-18T08:33:37;-4.90;99.90
13354;DHT22;6746;50.892;4.064;2022-12-18T08:36:05;-4.80;99.90
13354;DHT22;6746;50.892;4.064;2022-12-18T08:38:34;-4.80;99.90
13354;DHT22;6746;50.892;4.064;2022-12-18T08:41:03;-4.70;99.90
13354;DHT22;6746;50.892;4.064;2022-12-18T08:43:34;-4.60;99.90
13354;DHT22;6746;50.892;4.064;2022-12-18T08:46:21;-4.60;99.90
13354;DHT22;6746;50.892;4.064;2022-12-18T08:48:50;-4.50;99.90
13354;DHT22;6746;50.892;4.064;2022-12-18T08:51:19;-2.20;99.90
13354;DHT22;6746;50.892;4.064;2022-12-18T08:53:48;-4.20;99.90
13354;DHT22;6746;50.892;4.064;2022-12-18T08:56:16;-4.10;99.90
13354;DHT22;6746;50.892;4.064;2022-12-18T08:58:45;-4.00;99.90
13354;DHT22;6746;50.892;4.064;2022-12-18T09:01:14;-3.90;99.90
13354;DHT22;6746;50.892;4.064;2022-12-18T09:03:43;-3.80;99.90
13354;DHT22;6746;50.892;4.064;2022-12-18T09:06:15;-3.70;99.90
13354;DHT22;6746;50.892;4.064;2022-12-18T09:08:53;-3.70;99.90
13354;DHT22;6746;50.892;4.064;2022-12-18T09:11:32;-3.60;99.90
13354;DHT22;6746;50.892;4.064;2022-12-18T09:14:00;-3.50;99.90
13354;DHT22;6746;50.892;4.064;2022-12-18T09:16:29;-3.50;99.90
13354;DHT22;6746;50.892;4.064;2022-12-18T09:19:01;-3.40;99.90
13354;DHT22;6746;50.892;4.064;2022-12-18T09:21:30;-3.40;99.90
13354;DHT22;6746;50.892;4.064;2022-12-18T09:24:11;-3.30;99.90
13354;DHT22;6746;50.892;4.064;2022-12-18T09:26:46;-3.20;99.90
13354;DHT22;6746;50.892;4.064;2022-12-18T09:29:15;-3.20;99.90
13354;DHT22;6746;50.892;4.064;2022-12-18T09:31:54;-3.10;99.90
13354;DHT22;6746;50.892;4.064;2022-12-18T09:34:22;-3.10;99.90
13354;DHT22;6746;50.892;4.064;2022-12-18T09:36:51;-3.00;99.90
13354;DHT22;6746;50.892;4.064;2022-12-18T09:39:22;-3.00;99.90
13354;DHT22;6746;50.892;4.064;2022-12-18T09:41:57;-2.90;99.90
13354;DHT22;6746;50.892;4.064;2022-12-18T09:44:36;-2.90;99.90
13354;DHT22;6746;50.892;4.064;2022-12-18T09:47:09;-2.80;99.90
13354;DHT22;6746;50.892;4.064;2022-12-18T09:49:48;-2.70;99.90
13354;DHT22;6746;50.892;4.064;2022-12-18T09:52:28;-2.70;99.90
13354;DHT22;6746;50.892;4.064;2022-12-18T09:54:58;-2.70;99.90
13354;DHT22;6746;50.892;4.064;2022-12-18T09:57:29;-2.60;99.90
13354;DHT22;6746;50.892;4.064;2022-12-18T10:00:34;-2.50;99.90
13354;DHT22;6746;50.892;4.064;2022-12-18T10:02:58;-2.50;99.90
13354;DHT22;6746;50.892;4.064;2022-12-18T10:05:29;-2.40;99.90
13354;DHT22;6746;50.892;4.064;2022-12-18T10:08:00;-2.40;99.90
13354;DHT22;6746;50.892;4.064;2022-12-18T10:10:41;-2.30;99.90
13354;DHT22;6746;50.892;4.064;2022-12-18T10:13:18;-2.30;99.90
13354;DHT22;6746;50.892;4.064;2022-12-18T10:24:50;-2.00;99.90
13354;DHT22;6746;50.892;4.064;2022-12-18T10:27:24;-2.00;99.90
13354;DHT22;6746;50.892;4.064;2022-12-18T10:29:51;-1.90;99.90
13354;DHT22;6746;50.892;4.064;2022-12-18T10:32:27;-1.90;99.90
13354;DHT22;6746;50.892;4.064;2022-12-18T10:35:20;-1.80;99.90
13354;DHT22;6746;50.892;4.064;2022-12-18T10:40:52;-1.70;99.90
13354;DHT22;6746;50.892;4.064;2022-12-18T10:46:07;-1.50;99.90
13354;DHT22;6746;50.892;4.064;2022-12-18T10:48:36;-1.50;99.90
13354;DHT22;6746;50.892;4.064;2022-12-18T10:51:07;-1.40;99.90
13354;DHT22;6746;50.892;4.064;2022-12-18T10:53:44;-1.30;99.90
13354;DHT22;6746;50.892;4.064;2022-12-18T10:56:12;-1.30;99.90
13354;DHT22;6746;50.892;4.064;2022-12-18T10:58:40;-1.30;99.90
13354;DHT22;6746;50.892;4.064;2022-12-18T11:01:11;-1.20;99.90
13354;DHT22;6746;50.892;4.064;2022-12-18T11:04:07;-1.30;99.90
13354;DHT22;6746;50.892;4.064;2022-12-18T11:06:35;-1.20;99.90
13354;DHT22;6746;50.892;4.064;2022-12-18T11:09:04;-1.20;99.90
13354;DHT22;6746;50.892;4.064;2022-12-18T11:11:42;-1.20;99.90
13354;DHT22;6746;50.892;4.064;2022-12-18T11:15:03;-1.10;99.90
13354;DHT22;6746;50.892;4.064;2022-12-18T11:17:16;-1.00;99.90
13354;DHT22;6746;50.892;4.064;2022-12-18T11:19:36;-1.00;99.90
13354;DHT22;6746;50.892;4.064;2022-12-18T11:22:17;-0.90;99.90
13354;DHT22;6746;50.892;4.064;2022-12-18T11:24:35;-0.80;99.90
13354;DHT22;6746;50.892;4.064;2022-12-18T11:27:04;-0.90;99.90
13354;DHT22;6746;50.892;4.064;2022-12-18T11:29:34;-0.80;99.90
13354;DHT22;6746;50.892;4.064;2022-12-18T11:32:21;-0.80;99.90
13354;DHT22;6746;50.892;4.064;2022-12-18T11:34:57;-0.70;99.90
13354;DHT22;6746;50.892;4.064;2022-12-18T11:37:27;-0.70;99.90
13354;DHT22;6746;50.892;4.064;2022-12-18T11:40:18;-0.60;99.90
13354;DHT22;6746;50.892;4.064;2022-12-18T11:43:03;-0.60;99.90
13354;DHT22;6746;50.892;4.064;2022-12-18T11:45:36;-0.60;99.90
13354;DHT22;6746;50.892;4.064;2022-12-18T11:48:04;-0.50;99.90
13354;DHT22;6746;50.892;4.064;2022-12-18T11:51:02;-0.50;99.90
13354;DHT22;6746;50.892;4.064;2022-12-18T11:53:46;-0.50;99.90
13354;DHT22;6746;50.892;4.064;2022-12-18T11:56:38;-0.50;99.90
13354;DHT22;6746;50.892;4.064;2022-12-18T11:59:12;-0.40;99.90
13354;DHT22;6746;50.892;4.064;2022-12-18T12:01:54;-0.40;99.90
13354;DHT22;6746;50.892;4.064;2022-12-18T12:04:39;-0.40;99.90
13354;DHT22;6746;50.892;4.064;2022-12-18T12:07:17;-0.30;99.90
13354;DHT22;6746;50.892;4.064;2022-12-18T12:26:40;0.10;99.90
13354;DHT22;6746;50.892;4.064;2022-12-18T12:29:15;0.10;99.90
13354;DHT22;6746;50.892;4.064;2022-12-18T12:32:15;0.10;99.90
13354;DHT22;6746;50.892;4.064;2022-12-18T12:40:48;0.30;99.90
13354;DHT22;6746;50.892;4.064;2022-12-18T12:46:04;0.30;99.90
13354;DHT22;6746;50.892;4.064;2022-12-18T12:48:46;0.40;99.90
13354;DHT22;6746;50.892;4.064;2022-12-18T12:51:28;0.40;99.90
13354;DHT22;6746;50.892;4.064;2022-12-18T12:54:04;0.40;99.90
13354;DHT22;6746;50.892;4.064;2022-12-18T13:02:14;0.50;99.90
13354;DHT22;6746;50.892;4.064;2022-12-18T13:07:35;0.50;99.90
13354;DHT22;6746;50.892;4.064;2022-12-18T13:15:37;0.60;99.90
13354;DHT22;6746;50.892;4.064;2022-12-18T13:18:23;0.60;99.90
13354;DHT22;6746;50.892;4.064;2022-12-18T13:23:31;0.60;99.90
13354;DHT22;6746;50.892;4.064;2022-12-18T13:32:15;0.70;99.90
13354;DHT22;6746;50.892;4.064;2022-12-18T13:34:19;0.60;99.90
13354;DHT22;6746;50.892;4.064;2022-12-18T13:40:00;0.70;99.90
13354;DHT22;6746;50.892;4.064;2022-12-18T13:42:38;0.70;99.90
13354;DHT22;6746;50.892;4.064;2022-12-18T13:45:42;0.60;99.90
13354;DHT22;6746;50.892;4.064;2022-12-18T13:48:24;0.60;99.90
13354;DHT22;6746;50.892;4.064;2022-12-18T13:50:53;0.60;99.90
13354;DHT22;6746;50.892;4.064;2022-12-18T13:53:26;0.60;99.90
13354;DHT22;6746;50.892;4.064;2022-12-18T13:56:08;0.60;99.90
13354;DHT22;6746;50.892;4.064;2022-12-18T13:58:41;0.70;99.90
13354;DHT22;6746;50.892;4.064;2022-12-18T14:01:21;0.60;99.90
13354;DHT22;6746;50.892;4.064;2022-12-18T14:04:09;0.70;99.90
13354;DHT22;6746;50.892;4.064;2022-12-18T14:06:45;0.60;99.90
13354;DHT22;6746;50.892;4.064;2022-12-18T14:09:14;0.60;99.90
13354;DHT22;6746;50.892;4.064;2022-12-18T14:12:01;0.60;99.90
13354;DHT22;6746;50.892;4.064;2022-12-18T14:14:57;0.60;99.90
13354;DHT22;6746;50.892;4.064;2022-12-18T14:17:26;0.60;99.90
13354;DHT22;6746;50.892;4.064;2022-12-18T14:19:54;0.60;99.90
13354;DHT22;6746;50.892;4.064;2022-12-18T14:22:33;0.60;99.90
13354;DHT22;6746;50.892;4.064;2022-12-18T14:28:02;0.50;99.90
13354;DHT22;6746;50.892;4.064;2022-12-18T14:30:37;0.50;99.90
13354;DHT22;6746;50.892;4.064;2022-12-18T14:33:25;0.50;99.90
13354;DHT22;6746;50.892;4.064;2022-12-18T14:36:04;0.60;99.90
13354;DHT22;6746;50.892;4.064;2022-12-18T14:38:41;0.50;99.90
13354;DHT22;6746;50.892;4.064;2022-12-18T14:41:22;0.50;99.90
13354;DHT22;6746;50.892;4.064;2022-12-18T14:43:51;0.50;99.90
13354;DHT22;6746;50.892;4.064;2022-12-18T14:46:36;0.50;99.90
13354;DHT22;6746;50.892;4.064;2022-12-18T14:49:05;0.50;99.90
13354;DHT22;6746;50.892;4.064;2022-12-18T14:52:02;0.50;99.90
13354;DHT22;6746;50.892;4.064;2022-12-18T14:54:35;0.50;99.90
13354;DHT22;6746;50.892;4.064;2022-12-18T14:57:22;0.50;99.90
13354;DHT22;6746;50.892;4.064;2022-12-18T15:00:07;0.50;99.90
13354;DHT22;6746;50.892;4.064;2022-12-18T15:02:38;0.50;99.90
13354;DHT22;6746;50.892;4.064;2022-12-18T15:07:52;0.60;99.90
13354;DHT22;6746;50.892;4.064;2022-12-18T15:10:45;0.60;99.90
13354;DHT22;6746;50.892;4.064;2022-12-18T15:13:19;0.50;99.90
13354;DHT22;6746;50.892;4.064;2022-12-18T15:18:18;0.50;99.90
13354;DHT22;6746;50.892;4.064;2022-12-18T15:20:52;0.60;99.90
13354;DHT22;6746;50.892;4.064;2022-12-18T15:23:51;0.60;99.90
13354;DHT22;6746;50.892;4.064;2022-12-18T15:26:38;0.60;99.90
13354;DHT22;6746;50.892;4.064;2022-12-18T15:29:22;0.60;99.90
13354;DHT22;6746;50.892;4.064;2022-12-18T15:32:02;0.60;99.90
13354;DHT22;6746;50.892;4.064;2022-12-18T15:34:32;0.60;99.90
13354;DHT22;6746;50.892;4.064;2022-12-18T15:37:09;0.60;99.90
13354;DHT22;6746;50.892;4.064;2022-12-18T15:39:48;0.60;99.90
13354;DHT22;6746;50.892;4.064;2022-12-18T15:42:26;0.60;99.90
13354;DHT22;6746;50.892;4.064;2022-12-18T15:45:12;0.70;99.90
13354;DHT22;6746;50.892;4.064;2022-12-18T15:47:40;0.70;99.90
13354;DHT22;6746;50.892;4.064;2022-12-18T15:50:22;0.70;99.90
13354;DHT22;6746;50.892;4.064;2022-12-18T15:53:08;0.70;99.90
13354;DHT22;6746;50.892;4.064;2022-12-18T15:55:46;0.70;99.90
13354;DHT22;6746;50.892;4.064;2022-12-18T15:58:45;0.70;99.90
13354;DHT22;6746;50.892;4.064;2022-12-18T16:01:24;0.70;99.90
13354;DHT22;6746;50.892;4.064;2022-12-18T16:04:03;0.70;99.90
13354;DHT22;6746;50.892;4.064;2022-12-18T16:06:41;0.80;99.90
13354;DHT22;6746;50.892;4.064;2022-12-18T16:09:19;0.80;99.90
13354;DHT22;6746;50.892;4.064;2022-12-18T16:11:57;0.80;99.90
13354;DHT22;6746;50.892;4.064;2022-12-18T16:14:42;0.80;99.90
13354;DHT22;6746;50.892;4.064;2022-12-18T16:17:21;0.80;99.90
13354;DHT22;6746;50.892;4.064;2022-12-18T16:19:59;0.80;99.90
13354;DHT22;6746;50.892;4.064;2022-12-18T16:22:37;0.90;99.90
13354;DHT22;6746;50.892;4.064;2022-12-18T16:25:24;0.90;99.90
13354;DHT22;6746;50.892;4.064;2022-12-18T16:27:58;0.90;99.90
13354;DHT22;6746;50.892;4.064;2022-12-18T16:30:36;0.90;99.90
13354;DHT22;6746;50.892;4.064;2022-12-18T16:33:14;0.90;99.90
13354;DHT22;6746;50.892;4.064;2022-12-18T16:35:52;0.90;99.90
13354;DHT22;6746;50.892;4.064;2022-12-18T16:38:30;0.90;99.90
13354;DHT22;6746;50.892;4.064;2022-12-18T16:41:17;1.00;99.90
13354;DHT22;6746;50.892;4.064;2022-12-18T16:44:11;1.00;99.90
13354;DHT22;6746;50.892;4.064;2022-12-18T16:46:49;1.00;99.90
13354;DHT22;6746;50.892;4.064;2022-12-18T16:49:27;1.00;99.90
13354;DHT22;6746;50.892;4.064;2022-12-18T16:52:05;1.00;99.90
13354;DHT22;6746;50.892;4.064;2022-12-18T16:54:43;1.10;99.90
13354;DHT22;6746;50.892;4.064;2022-12-18T16:57:24;1.10;99.90
13354;DHT22;6746;50.892;4.064;2022-12-18T17:00:02;1.10;99.90
13354;DHT22;6746;50.892;4.064;2022-12-18T17:02:50;1.10;99.90
13354;DHT22;6746;50.892;4.064;2022-12-18T17:05:28;1.10;99.90
13354;DHT22;6746;50.892;4.064;2022-12-18T17:08:06;1.10;99.90
13354;DHT22;6746;50.892;4.064;2022-12-18T17:10:54;1.20;99.90
13354;DHT22;6746;50.892;4.064;2022-12-18T17:13:42;1.20;99.90
13354;DHT22;6746;50.892;4.064;2022-12-18T17:16:29;1.10;99.90
13354;DHT22;6746;50.892;4.064;2022-12-18T17:19:08;1.10;99.90
13354;DHT22;6746;50.892;4.064;2022-12-18T17:21:48;1.10;99.90
13354;DHT22;6746;50.892;4.064;2022-12-18T17:24:34;1.10;99.90
13354;DHT22;6746;50.892;4.064;2022-12-18T17:27:21;1.10;99.90
13354;DHT22;6746;50.892;4.064;2022-12-18T17:30:09;1.10;99.90
13354;DHT22;6746;50.892;4.064;2022-12-18T17:32:53;1.10;99.90
13354;DHT22;6746;50.892;4.064;2022-12-18T17:35:31;1.10;99.90
13354;DHT22;6746;50.892;4.064;2022-12-18T17:38:19;1.10;99.90
13354;DHT22;6746;50.892;4.064;2022-12-18T17:41:04;1.10;99.90
13354;DHT22;6746;50.892;4.064;2022-12-18T17:43:54;1.10;99.90
13354;DHT22;6746;50.892;4.064;2022-12-18T17:46:36;1.10;99.90
13354;DHT22;6746;50.892;4.064;2022-12-18T17:49:17;1.10;99.90
13354;DHT22;6746;50.892;4.064;2022-12-18T17:52:06;1.10;99.90
13354;DHT22;6746;50.892;4.064;2022-12-18T17:54:56;1.10;99.90
13354;DHT22;6746;50.892;4.064;2022-12-18T17:57:40;1.10;99.90
13354;DHT22;6746;50.892;4.064;2022-12-18T18:00:20;1.10;99.90
13354;DHT22;6746;50.892;4.064;2022-12-18T18:03:09;1.10;99.90
13354;DHT22;6746;50.892;4.064;2022-12-18T18:06:00;1.10;99.90
13354;DHT22;6746;50.892;4.064;2022-12-18T18:08:43;1.00;99.90
13354;DHT22;6746;50.892;4.064;2022-12-18T18:11:24;1.00;99.90
13354;DHT22;6746;50.892;4.064;2022-12-18T18:14:21;1.00;99.90
13354;DHT22;6746;50.892;4.064;2022-12-18T18:16:59;1.00;99.90
13354;DHT22;6746;50.892;4.064;2022-12-18T18:19:45;1.00;99.90
13354;DHT22;6746;50.892;4.064;2022-12-18T18:22:23;1.00;99.90
13354;DHT22;6746;50.892;4.064;2022-12-18T18:25:11;1.00;99.90
13354;DHT22;6746;50.892;4.064;2022-12-18T18:27:59;1.00;99.90
13354;DHT22;6746;50.892;4.064;2022-12-18T18:30:47;1.00;99.90
13354;DHT22;6746;50.892;4.064;2022-12-18T18:33:35;1.00;99.90
13354;DHT22;6746;50.892;4.064;2022-12-18T18:36:23;1.00;99.90
13354;DHT22;6746;50.892;4.064;2022-12-18T18:39:12;1.00;99.90